sensor_id;sensor_type;location;lat;lon;timestamp;temperature;humidity
55369;DHT22;41247;49.736;8.752;2023-04-10T00:00:09;6.90;99.90
55369;DHT22;41247;49.736;8.752;2023-04-10T00:03:50;7.00;99.90
55369;DHT22;41247;49.736;8.752;2023-04-10T00:07:30;7.00;99.90
55369;DHT22;41247;49.736;8.752;2023-04-10T00:11:11;7.20;99.90
55369;DHT22;41247;49.736;8.752;2023-04-10T00:14:51;7.20;99.90
55369;DHT22;41247;49.736;8.752;2023-04-10T00:18:32;7.20;99.90
55369;DHT22;41247;49.736;8.752;2023-04-10T00:22:13;7.30;99.90
55369;DHT22;41247;49.736;8.752;2023-04-10T00:25:54;7.40;99.90
55369;DHT22;41247;49.736;8.752;2023-04-10T00:29:35;7.60;99.90
55369;DHT22;41247;49.736;8.752;2023-04-10T00:33:15;7.70;99.90
55369;DHT22;41247;49.736;8.752;2023-04-10T00:36:57;7.60;99.90
55369;DHT22;41247;49.736;8.752;2023-04-10T00:40:38;7.50;99.90
55369;DHT22;41247;49.736;8.752;2023-04-10T00:44:19;7.50;99.90
55369;DHT22;41247;49.736;8.752;2023-04-10T00:47:59;7.40;99.90
55369;DHT22;41247;49.736;8.752;2023-04-10T00:51:40;7.30;99.90
55369;DHT22;41247;49.736;8.752;2023-04-10T00:55:20;7.50;99.90
55369;DHT22;41247;49.736;8.752;2023-04-10T00:59:01;7.50;99.90
55369;DHT22;41247;49.736;8.752;2023-04-10T01:02:42;7.40;99.90
55369;DHT22;41247;49.736;8.752;2023-04-10T01:06:58;7.40;99.90
55369;DHT22;41247;49.736;8.752;2023-04-10T01:11:00;7.30;99.90
55369;DHT22;41247;49.736;8.752;2023-04-10T01:19:17;7.00;99.90
55369;DHT22;41247;49.736;8.752;2023-04-10T01:23:42;7.00;99.90
55369;DHT22;41247;49.736;8.752;2023-04-10T01:27:48;7.20;99.90
55369;DHT22;41247;49.736;8.752;2023-04-10T01:31:43;7.10;99.90
55369;DHT22;41247;49.736;8.752;2023-04-10T01:35:28;7.20;99.90
55369;DHT22;41247;49.736;8.752;2023-04-10T01:39:10;7.10;99.90
55369;DHT22;41247;49.736;8.752;2023-04-10T01:42:53;6.90;99.90
55369;DHT22;41247;49.736;8.752;2023-04-10T01:46:36;6.90;99.90
55369;DHT22;41247;49.736;8.752;2023-04-10T01:50:19;6.90;99.90
55369;DHT22;41247;49.736;8.752;2023-04-10T01:54:01;7.00;99.90
55369;DHT22;41247;49.736;8.752;2023-04-10T01:57:43;7.10;99.90
55369;DHT22;41247;49.736;8.752;2023-04-10T02:01:24;7.10;99.90
55369;DHT22;41247;49.736;8.752;2023-04-10T02:05:04;7.10;99.90
55369;DHT22;41247;49.736;8.752;2023-04-10T02:09:19;7.10;99.90
55369;DHT22;41247;49.736;8.752;2023-04-10T02:13:05;7.10;99.90
55369;DHT22;41247;49.736;8.752;2023-04-10T02:16:48;7.20;99.90
55369;DHT22;41247;49.736;8.752;2023-04-10T02:20:32;7.30;99.90
55369;DHT22;41247;49.736;8.752;2023-04-10T02:24:12;7.30;99.90
55369;DHT22;41247;49.736;8.752;2023-04-10T02:27:53;7.30;99.90
55369;DHT22;41247;49.736;8.752;2023-04-10T02:31:34;7.40;99.90
55369;DHT22;41247;49.736;8.752;2023-04-10T02:35:14;7.30;99.90
55369;DHT22;41247;49.736;8.752;2023-04-10T02:38:55;7.30;99.90
55369;DHT22;41247;49.736;8.752;2023-04-10T02:42:35;7.30;99.90
55369;DHT22;41247;49.736;8.752;2023-04-10T02:46:16;7.30;99.90
55369;DHT22;41247;49.736;8.752;2023-04-10T02:49:57;7.40;99.90
55369;DHT22;41247;49.736;8.752;2023-04-10T02:53:37;7.50;99.90
55369;DHT22;41247;49.736;8.752;2023-04-10T02:57:18;7.50;99.90
55369;DHT22;41247;49.736;8.752;2023-04-10T03:00:58;7.50;99.90
55369;DHT22;41247;49.736;8.752;2023-04-10T03:04:39;7.50;99.90
55369;DHT22;41247;49.736;8.752;2023-04-10T03:08:20;7.50;99.90
55369;DHT22;41247;49.736;8.752;2023-04-10T03:12:00;7.50;99.90
55369;DHT22;41247;49.736;8.752;2023-04-10T03:15:41;7.40;99.90
55369;DHT22;41247;49.736;8.752;2023-04-10T03:19:21;7.50;99.90
55369;DHT22;41247;49.736;8.752;2023-04-10T03:23:02;7.50;99.90
55369;DHT22;41247;49.736;8.752;2023-04-10T03:26:43;7.70;99.90
55369;DHT22;41247;49.736;8.752;2023-04-10T03:30:24;7.70;99.90
55369;DHT22;41247;49.736;8.752;2023-04-10T03:34:04;7.80;99.90
55369;DHT22;41247;49.736;8.752;2023-04-10T03:37:45;7.80;99.90
55369;DHT22;41247;49.736;8.752;2023-04-10T03:41:26;7.80;99.90
55369;DHT22;41247;49.736;8.752;2023-04-10T03:45:07;7.80;99.90
55369;DHT22;41247;49.736;8.752;2023-04-10T03:48:48;7.70;99.90
55369;DHT22;41247;49.736;8.752;2023-04-10T03:52:28;7.80;99.90
55369;DHT22;41247;49.736;8.752;2023-04-10T03:56:09;7.80;99.90
55369;DHT22;41247;49.736;8.752;2023-04-10T03:59:49;7.90;99.90
55369;DHT22;41247;49.736;8.752;2023-04-10T04:03:30;7.90;99.90
55369;DHT22;41247;49.736;8.752;2023-04-10T04:07:10;7.80;99.90
55369;DHT22;41247;49.736;8.752;2023-04-10T04:10:51;7.80;99.90
55369;DHT22;41247;49.736;8.752;2023-04-10T04:14:32;7.80;99.90
55369;DHT22;41247;49.736;8.752;2023-04-10T04:18:12;7.70;99.90
55369;DHT22;41247;49.736;8.752;2023-04-10T04:21:53;7.60;99.90
55369;DHT22;41247;49.736;8.752;2023-04-10T04:25:34;7.60;99.90
55369;DHT22;41247;49.736;8.752;2023-04-10T04:29:14;7.50;99.90
55369;DHT22;41247;49.736;8.752;2023-04-10T04:32:55;7.40;99.90
55369;DHT22;41247;49.736;8.752;2023-04-10T04:36:35;7.40;99.90
55369;DHT22;41247;49.736;8.752;2023-04-10T04:40:16;7.40;99.90
55369;DHT22;41247;49.736;8.752;2023-04-10T04:43:57;7.30;99.90
55369;DHT22;41247;49.736;8.752;2023-04-10T04:47:39;7.20;99.90
55369;DHT22;41247;49.736;8.752;2023-04-10T04:51:19;7.30;99.90
55369;DHT22;41247;49.736;8.752;2023-04-10T04:55:00;7.30;99.90
55369;DHT22;41247;49.736;8.752;2023-04-10T04:58:41;7.20;99.90
55369;DHT22;41247;49.736;8.752;2023-04-10T05:02:21;7.20;99.90
55369;DHT22;41247;49.736;8.752;2023-04-10T05:06:02;7.20;99.90
55369;DHT22;41247;49.736;8.752;2023-04-10T05:09:43;7.20;99.90
55369;DHT22;41247;49.736;8.752;2023-04-10T05:13:24;7.10;99.90
55369;DHT22;41247;49.736;8.752;2023-04-10T05:17:04;7.10;99.90
55369;DHT22;41247;49.736;8.752;2023-04-10T05:20:45;7.10;99.90
55369;DHT22;41247;49.736;8.752;2023-04-10T05:24:27;7.10;99.90
55369;DHT22;41247;49.736;8.752;2023-04-10T05:28:08;7.20;99.90
55369;DHT22;41247;49.736;8.752;2023-04-10T05:31:48;7.30;99.90
55369;DHT22;41247;49.736;8.752;2023-04-10T05:35:29;7.40;99.90
55369;DHT22;41247;49.736;8.752;2023-04-10T05:39:09;7.40;99.90
55369;DHT22;41247;49.736;8.752;2023-04-10T05:42:50;7.50;99.90
55369;DHT22;41247;49.736;8.752;2023-04-10T05:46:31;7.60;99.90
55369;DHT22;41247;49.736;8.752;2023-04-10T05:50:11;7.60;99.90
55369;DHT22;41247;49.736;8.752;2023-04-10T05:53:52;7.60;99.90
55369;DHT22;41247;49.736;8.752;2023-04-10T05:57:32;7.50;99.90
55369;DHT22;41247;49.736;8.752;2023-04-10T06:01:13;7.60;99.90
55369;DHT22;41247;49.736;8.752;2023-04-10T06:04:54;7.60;99.90
55369;DHT22;41247;49.736;8.752;2023-04-10T06:08:34;7.60;99.90
55369;DHT22;41247;49.736;8.752;2023-04-10T06:12:15;7.60;99.90
55369;DHT22;41247;49.736;8.752;2023-04-10T06:15:57;7.60;99.90
55369;DHT22;41247;49.736;8.752;2023-04-10T06:19:37;7.70;99.90
55369;DHT22;41247;49.736;8.752;2023-04-10T06:23:18;7.60;99.90
55369;DHT22;41247;49.736;8.752;2023-04-10T06:26:59;7.70;99.90
55369;DHT22;41247;49.736;8.752;2023-04-10T06:30:39;7.70;99.90
55369;DHT22;41247;49.736;8.752;2023-04-10T06:34:20;7.80;99.90
55369;DHT22;41247;49.736;8.752;2023-04-10T06:38:00;7.80;99.90
55369;DHT22;41247;49.736;8.752;2023-04-10T06:41:41;7.90;99.90
55369;DHT22;41247;49.736;8.752;2023-04-10T06:45:22;7.90;99.90
55369;DHT22;41247;49.736;8.752;2023-04-10T06:49:02;8.00;99.90
55369;DHT22;41247;49.736;8.752;2023-04-10T06:52:46;8.00;99.90
55369;DHT22;41247;49.736;8.752;2023-04-10T06:56:27;8.00;99.90
55369;DHT22;41247;49.736;8.752;2023-04-10T07:00:08;8.10;99.90
55369;DHT22;41247;49.736;8.752;2023-04-10T07:03:49;8.30;99.90
55369;DHT22;41247;49.736;8.752;2023-04-10T07:07:30;8.40;99.90
55369;DHT22;41247;49.736;8.752;2023-04-10T07:11:10;8.60;99.90
55369;DHT22;41247;49.736;8.752;2023-04-10T07:14:51;8.80;99.90
55369;DHT22;41247;49.736;8.752;2023-04-10T07:18:31;8.90;99.90
55369;DHT22;41247;49.736;8.752;2023-04-10T07:22:12;9.10;99.90
55369;DHT22;41247;49.736;8.752;2023-04-10T07:25:52;9.30;99.90
55369;DHT22;41247;49.736;8.752;2023-04-10T07:29:33;9.50;99.90
55369;DHT22;41247;49.736;8.752;2023-04-10T07:33:14;9.70;99.90
55369;DHT22;41247;49.736;8.752;2023-04-10T07:36:54;9.90;99.90
55369;DHT22;41247;49.736;8.752;2023-04-10T07:40:35;10.00;99.90
55369;DHT22;41247;49.736;8.752;2023-04-10T07:44:16;10.10;99.90
55369;DHT22;41247;49.736;8.752;2023-04-10T07:47:56;10.30;99.90
55369;DHT22;41247;49.736;8.752;2023-04-10T07:51:37;10.40;99.90
55369;DHT22;41247;49.736;8.752;2023-04-10T07:55:17;10.50;99.90
55369;DHT22;41247;49.736;8.752;2023-04-10T07:58:59;10.60;99.90
55369;DHT22;41247;49.736;8.752;2023-04-10T08:02:39;10.80;99.90
55369;DHT22;41247;49.736;8.752;2023-04-10T08:06:20;11.10;99.90
55369;DHT22;41247;49.736;8.752;2023-04-10T08:10:01;11.30;99.90
55369;DHT22;41247;49.736;8.752;2023-04-10T08:13:42;11.40;99.90
55369;DHT22;41247;49.736;8.752;2023-04-10T08:17:23;11.50;99.90
55369;DHT22;41247;49.736;8.752;2023-04-10T08:21:03;11.60;99.90
55369;DHT22;41247;49.736;8.752;2023-04-10T08:24:44;11.70;99.90
55369;DHT22;41247;49.736;8.752;2023-04-10T08:28:27;11.80;99.90
55369;DHT22;41247;49.736;8.752;2023-04-10T08:32:08;11.90;99.90
55369;DHT22;41247;49.736;8.752;2023-04-10T08:35:49;12.00;99.90
55369;DHT22;41247;49.736;8.752;2023-04-10T08:39:29;12.10;99.90
55369;DHT22;41247;49.736;8.752;2023-04-10T08:43:10;12.20;99.90
55369;DHT22;41247;49.736;8.752;2023-04-10T08:46:51;12.30;99.90
55369;DHT22;41247;49.736;8.752;2023-04-10T08:50:32;12.40;99.90
55369;DHT22;41247;49.736;8.752;2023-04-10T08:54:18;12.50;99.90
55369;DHT22;41247;49.736;8.752;2023-04-10T08:58:02;12.60;99.90
55369;DHT22;41247;49.736;8.752;2023-04-10T09:01:44;12.80;99.90
55369;DHT22;41247;49.736;8.752;2023-04-10T09:05:29;12.90;99.90
55369;DHT22;41247;49.736;8.752;2023-04-10T09:09:10;13.10;99.90
55369;DHT22;41247;49.736;8.752;2023-04-10T09:12:51;13.30;99.90
55369;DHT22;41247;49.736;8.752;2023-04-10T09:16:31;13.40;99.90
55369;DHT22;41247;49.736;8.752;2023-04-10T09:20:20;13.50;99.90
55369;DHT22;41247;49.736;8.752;2023-04-10T09:24:02;13.70;99.90
55369;DHT22;41247;49.736;8.752;2023-04-10T09:27:42;13.90;99.90
55369;DHT22;41247;49.736;8.752;2023-04-10T09:31:27;13.90;99.90
55369;DHT22;41247;49.736;8.752;2023-04-10T09:35:15;14.10;99.90
55369;DHT22;41247;49.736;8.752;2023-04-10T09:38:56;14.30;99.90
55369;DHT22;41247;49.736;8.752;2023-04-10T09:42:37;14.50;99.90
55369;DHT22;41247;49.736;8.752;2023-04-10T09:46:28;14.80;99.90
55369;DHT22;41247;49.736;8.752;2023-04-10T09:50:08;15.10;99.90
55369;DHT22;41247;49.736;8.752;2023-04-10T09:53:49;15.40;99.90
55369;DHT22;41247;49.736;8.752;2023-04-10T09:57:32;15.50;99.90
55369;DHT22;41247;49.736;8.752;2023-04-10T10:01:13;15.40;99.90
55369;DHT22;41247;49.736;8.752;2023-04-10T10:04:57;15.20;99.90
55369;DHT22;41247;49.736;8.752;2023-04-10T10:13:02;15.10;99.90
55369;DHT22;41247;49.736;8.752;2023-04-10T10:16:46;15.30;99.90
55369;DHT22;41247;49.736;8.752;2023-04-10T10:20:31;15.60;99.90
55369;DHT22;41247;49.736;8.752;2023-04-10T10:24:13;15.70;99.90
55369;DHT22;41247;49.736;8.752;2023-04-10T10:27:54;15.80;99.90
55369;DHT22;41247;49.736;8.752;2023-04-10T10:31:36;16.00;99.90
55369;DHT22;41247;49.736;8.752;2023-04-10T10:35:17;16.20;99.90
55369;DHT22;41247;49.736;8.752;2023-04-10T10:39:13;16.20;99.90
55369;DHT22;41247;49.736;8.752;2023-04-10T10:43:13;16.30;99.90
55369;DHT22;41247;49.736;8.752;2023-04-10T10:47:05;16.60;99.90
55369;DHT22;41247;49.736;8.752;2023-04-10T10:50:58;16.70;99.90
55369;DHT22;41247;49.736;8.752;2023-04-10T10:54:39;17.00;99.90
55369;DHT22;41247;49.736;8.752;2023-04-10T11:02:30;16.80;99.90
55369;DHT22;41247;49.736;8.752;2023-04-10T11:06:14;16.90;99.90
55369;DHT22;41247;49.736;8.752;2023-04-10T11:09:55;16.90;99.90
55369;DHT22;41247;49.736;8.752;2023-04-10T11:13:38;17.10;99.90
55369;DHT22;41247;49.736;8.752;2023-04-10T11:17:47;17.40;99.90
55369;DHT22;41247;49.736;8.752;2023-04-10T11:21:31;17.40;99.90
55369;DHT22;41247;49.736;8.752;2023-04-10T11:25:12;17.40;99.90
55369;DHT22;41247;49.736;8.752;2023-04-10T11:28:52;17.20;99.90
55369;DHT22;41247;49.736;8.752;2023-04-10T11:32:42;17.40;99.90
55369;DHT22;41247;49.736;8.752;2023-04-10T11:36:24;17.70;99.90
55369;DHT22;41247;49.736;8.752;2023-04-10T11:40:06;17.80;99.90
55369;DHT22;41247;49.736;8.752;2023-04-10T11:43:50;17.90;99.90
55369;DHT22;41247;49.736;8.752;2023-04-10T11:47:31;18.20;99.90
55369;DHT22;41247;49.736;8.752;2023-04-10T11:51:13;18.30;99.90
55369;DHT22;41247;49.736;8.752;2023-04-10T11:54:53;18.50;99.90
55369;DHT22;41247;49.736;8.752;2023-04-10T11:58:34;18.20;99.90
55369;DHT22;41247;49.736;8.752;2023-04-10T12:02:14;18.50;99.90
55369;DHT22;41247;49.736;8.752;2023-04-10T12:05:55;18.70;99.90
55369;DHT22;41247;49.736;8.752;2023-04-10T12:09:36;18.80;99.90
55369;DHT22;41247;49.736;8.752;2023-04-10T12:13:31;18.80;99.90
55369;DHT22;41247;49.736;8.752;2023-04-10T12:17:12;18.80;99.90
55369;DHT22;41247;49.736;8.752;2023-04-10T12:20:52;18.60;99.90
55369;DHT22;41247;49.736;8.752;2023-04-10T12:28:20;18.70;99.90
55369;DHT22;41247;49.736;8.752;2023-04-10T12:32:08;18.80;99.90
55369;DHT22;41247;49.736;8.752;2023-04-10T12:35:49;18.90;99.90
55369;DHT22;41247;49.736;8.752;2023-04-10T12:39:31;18.90;99.90
55369;DHT22;41247;49.736;8.752;2023-04-10T12:43:29;18.90;99.90
55369;DHT22;41247;49.736;8.752;2023-04-10T12:47:13;19.20;99.90
55369;DHT22;41247;49.736;8.752;2023-04-10T12:50:54;19.40;99.90
55369;DHT22;41247;49.736;8.752;2023-04-10T12:54:35;19.30;99.90
55369;DHT22;41247;49.736;8.752;2023-04-10T12:58:19;19.00;99.90
55369;DHT22;41247;49.736;8.752;2023-04-10T13:01:59;18.90;99.90
55369;DHT22;41247;49.736;8.752;2023-04-10T13:05:40;19.20;99.90
55369;DHT22;41247;49.736;8.752;2023-04-10T13:09:20;19.20;99.90
55369;DHT22;41247;49.736;8.752;2023-04-10T13:13:01;19.10;99.90
55369;DHT22;41247;49.736;8.752;2023-04-10T13:16:42;19.10;99.90
55369;DHT22;41247;49.736;8.752;2023-04-10T13:20:22;19.00;99.90
55369;DHT22;41247;49.736;8.752;2023-04-10T13:24:03;18.70;99.90
55369;DHT22;41247;49.736;8.752;2023-04-10T13:27:43;18.60;99.90
55369;DHT22;41247;49.736;8.752;2023-04-10T13:31:24;18.70;99.90
55369;DHT22;41247;49.736;8.752;2023-04-10T13:35:05;18.70;99.90
55369;DHT22;41247;49.736;8.752;2023-04-10T13:38:46;19.00;99.90
55369;DHT22;41247;49.736;8.752;2023-04-10T13:42:26;19.00;99.20
55369;DHT22;41247;49.736;8.752;2023-04-10T13:46:07;19.00;99.90
55369;DHT22;41247;49.736;8.752;2023-04-10T13:49:48;18.60;99.30
55369;DHT22;41247;49.736;8.752;2023-04-10T13:53:28;18.60;99.50
55369;DHT22;41247;49.736;8.752;2023-04-10T13:57:09;19.00;99.90
55369;DHT22;41247;49.736;8.752;2023-04-10T14:00:49;19.20;99.90
55369;DHT22;41247;49.736;8.752;2023-04-10T14:04:30;19.30;99.90
55369;DHT22;41247;49.736;8.752;2023-04-10T14:08:11;19.20;99.80
55369;DHT22;41247;49.736;8.752;2023-04-10T14:11:51;19.30;99.90
55369;DHT22;41247;49.736;8.752;2023-04-10T14:15:32;20.00;99.90
55369;DHT22;41247;49.736;8.752;2023-04-10T14:19:13;20.50;99.10
55369;DHT22;41247;49.736;8.752;2023-04-10T14:22:53;20.50;99.90
55369;DHT22;41247;49.736;8.752;2023-04-10T14:26:34;20.20;99.90
55369;DHT22;41247;49.736;8.752;2023-04-10T14:30:14;20.30;99.80
55369;DHT22;41247;49.736;8.752;2023-04-10T14:33:55;20.30;98.70
55369;DHT22;41247;49.736;8.752;2023-04-10T14:37:36;20.60;97.90
55369;DHT22;41247;49.736;8.752;2023-04-10T14:41:17;20.60;96.90
55369;DHT22;41247;49.736;8.752;2023-04-10T14:44:58;20.10;97.00
55369;DHT22;41247;49.736;8.752;2023-04-10T14:48:38;19.80;98.80
55369;DHT22;41247;49.736;8.752;2023-04-10T14:52:19;20.20;97.20
55369;DHT22;41247;49.736;8.752;2023-04-10T14:55:59;20.00;97.00
55369;DHT22;41247;49.736;8.752;2023-04-10T14:59:40;19.70;96.90
55369;DHT22;41247;49.736;8.752;2023-04-10T15:03:21;19.60;98.00
55369;DHT22;41247;49.736;8.752;2023-04-10T15:07:02;19.50;98.70
55369;DHT22;41247;49.736;8.752;2023-04-10T15:10:42;19.20;97.30
55369;DHT22;41247;49.736;8.752;2023-04-10T15:14:23;18.90;99.00
55369;DHT22;41247;49.736;8.752;2023-04-10T15:18:03;18.60;98.90
55369;DHT22;41247;49.736;8.752;2023-04-10T15:21:44;18.50;98.30
55369;DHT22;41247;49.736;8.752;2023-04-10T15:25:25;18.00;98.40
55369;DHT22;41247;49.736;8.752;2023-04-10T15:29:05;17.80;99.50
55369;DHT22;41247;49.736;8.752;2023-04-10T15:32:46;17.70;99.90
55369;DHT22;41247;49.736;8.752;2023-04-10T15:36:27;17.70;99.90
55369;DHT22;41247;49.736;8.752;2023-04-10T15:40:07;17.70;99.90
55369;DHT22;41247;49.736;8.752;2023-04-10T15:43:48;17.70;99.90
55369;DHT22;41247;49.736;8.752;2023-04-10T15:47:29;17.80;99.90
55369;DHT22;41247;49.736;8.752;2023-04-10T15:51:10;17.80;99.90
55369;DHT22;41247;49.736;8.752;2023-04-10T15:54:50;17.90;99.80
55369;DHT22;41247;49.736;8.752;2023-04-10T15:58:32;17.80;99.90
55369;DHT22;41247;49.736;8.752;2023-04-10T16:02:13;18.00;99.90
55369;DHT22;41247;49.736;8.752;2023-04-10T16:05:53;18.20;99.90
55369;DHT22;41247;49.736;8.752;2023-04-10T16:09:34;18.30;99.90
55369;DHT22;41247;49.736;8.752;2023-04-10T16:13:15;18.20;99.20
55369;DHT22;41247;49.736;8.752;2023-04-10T16:16:55;18.00;99.30
55369;DHT22;41247;49.736;8.752;2023-04-10T16:20:36;17.80;99.90
55369;DHT22;41247;49.736;8.752;2023-04-10T16:24:16;17.70;99.30
55369;DHT22;41247;49.736;8.752;2023-04-10T16:27:57;17.40;99.50
55369;DHT22;41247;49.736;8.752;2023-04-10T16:31:38;17.20;99.80
55369;DHT22;41247;49.736;8.752;2023-04-10T16:35:18;17.00;99.90
55369;DHT22;41247;49.736;8.752;2023-04-10T16:38:59;16.80;99.90
55369;DHT22;41247;49.736;8.752;2023-04-10T16:42:39;16.60;99.90
55369;DHT22;41247;49.736;8.752;2023-04-10T16:46:20;16.50;99.90
55369;DHT22;41247;49.736;8.752;2023-04-10T16:50:01;16.30;99.90
55369;DHT22;41247;49.736;8.752;2023-04-10T16:53:42;16.20;99.90
55369;DHT22;41247;49.736;8.752;2023-04-10T16:57:22;16.00;99.90
55369;DHT22;41247;49.736;8.752;2023-04-10T17:01:15;16.00;99.90
55369;DHT22;41247;49.736;8.752;2023-04-10T17:05:02;15.90;99.90
55369;DHT22;41247;49.736;8.752;2023-04-10T17:08:43;15.80;99.90
55369;DHT22;41247;49.736;8.752;2023-04-10T17:12:24;15.80;99.90
55369;DHT22;41247;49.736;8.752;2023-04-10T17:16:05;15.70;99.90
55369;DHT22;41247;49.736;8.752;2023-04-10T17:19:45;15.60;99.90
55369;DHT22;41247;49.736;8.752;2023-04-10T17:23:26;15.50;99.90
55369;DHT22;41247;49.736;8.752;2023-04-10T17:27:07;15.40;99.90
55369;DHT22;41247;49.736;8.752;2023-04-10T17:30:47;15.40;99.90
55369;DHT22;41247;49.736;8.752;2023-04-10T17:34:28;15.30;99.90
55369;DHT22;41247;49.736;8.752;2023-04-10T17:38:09;15.30;99.90
55369;DHT22;41247;49.736;8.752;2023-04-10T17:41:49;15.20;99.90
55369;DHT22;41247;49.736;8.752;2023-04-10T17:45:30;15.00;99.90
55369;DHT22;41247;49.736;8.752;2023-04-10T17:49:10;14.90;99.90
55369;DHT22;41247;49.736;8.752;2023-04-10T17:52:51;14.80;99.90
55369;DHT22;41247;49.736;8.752;2023-04-10T17:56:32;14.70;99.90
55369;DHT22;41247;49.736;8.752;2023-04-10T18:00:13;14.60;99.90
55369;DHT22;41247;49.736;8.752;2023-04-10T18:03:55;14.60;99.90
55369;DHT22;41247;49.736;8.752;2023-04-10T18:07:37;14.50;99.90
55369;DHT22;41247;49.736;8.752;2023-04-10T18:11:17;14.40;99.90
55369;DHT22;41247;49.736;8.752;2023-04-10T18:14:58;14.30;99.90
55369;DHT22;41247;49.736;8.752;2023-04-10T18:18:39;14.30;99.90
55369;DHT22;41247;49.736;8.752;2023-04-10T18:22:20;14.30;99.90
55369;DHT22;41247;49.736;8.752;2023-04-10T18:26:00;14.30;99.90
55369;DHT22;41247;49.736;8.752;2023-04-10T18:29:42;14.30;99.90
55369;DHT22;41247;49.736;8.752;2023-04-10T18:33:23;14.20;99.90
55369;DHT22;41247;49.736;8.752;2023-04-10T18:37:04;14.20;99.90
55369;DHT22;41247;49.736;8.752;2023-04-10T18:40:45;14.20;99.90
55369;DHT22;41247;49.736;8.752;2023-04-10T18:44:26;14.30;99.90
55369;DHT22;41247;49.736;8.752;2023-04-10T18:48:07;14.20;99.90
55369;DHT22;41247;49.736;8.752;2023-04-10T18:51:47;14.20;99.90
55369;DHT22;41247;49.736;8.752;2023-04-10T18:55:28;14.20;99.90
55369;DHT22;41247;49.736;8.752;2023-04-10T18:59:08;14.10;99.90
55369;DHT22;41247;49.736;8.752;2023-04-10T19:02:49;14.10;99.90
55369;DHT22;41247;49.736;8.752;2023-04-10T19:06:30;14.10;99.90
55369;DHT22;41247;49.736;8.752;2023-04-10T19:10:11;14.10;99.90
55369;DHT22;41247;49.736;8.752;2023-04-10T19:13:52;14.10;99.90
55369;DHT22;41247;49.736;8.752;2023-04-10T19:17:33;14.10;99.90
55369;DHT22;41247;49.736;8.752;2023-04-10T19:21:13;14.10;99.90
55369;DHT22;41247;49.736;8.752;2023-04-10T19:24:54;14.00;99.90
55369;DHT22;41247;49.736;8.752;2023-04-10T19:28:34;14.00;99.90
55369;DHT22;41247;49.736;8.752;2023-04-10T19:32:15;14.10;99.90
55369;DHT22;41247;49.736;8.752;2023-04-10T19:35:55;14.00;99.90
55369;DHT22;41247;49.736;8.752;2023-04-10T19:39:36;14.00;99.90
55369;DHT22;41247;49.736;8.752;2023-04-10T19:43:17;14.00;99.90
55369;DHT22;41247;49.736;8.752;2023-04-10T19:46:57;14.00;99.90
55369;DHT22;41247;49.736;8.752;2023-04-10T19:50:38;13.90;99.90
55369;DHT22;41247;49.736;8.752;2023-04-10T19:54:18;14.00;99.90
55369;DHT22;41247;49.736;8.752;2023-04-10T19:57:59;14.00;99.90
55369;DHT22;41247;49.736;8.752;2023-04-10T20:01:39;14.00;99.90
55369;DHT22;41247;49.736;8.752;2023-04-10T20:05:20;14.00;99.90
55369;DHT22;41247;49.736;8.752;2023-04-10T20:09:03;14.00;99.90
55369;DHT22;41247;49.736;8.752;2023-04-10T20:12:43;13.90;99.90
55369;DHT22;41247;49.736;8.752;2023-04-10T20:16:24;13.90;99.90
55369;DHT22;41247;49.736;8.752;2023-04-10T20:20:05;13.90;99.90
55369;DHT22;41247;49.736;8.752;2023-04-10T20:23:46;13.90;99.90
55369;DHT22;41247;49.736;8.752;2023-04-10T20:27:27;13.80;99.90
55369;DHT22;41247;49.736;8.752;2023-04-10T20:31:07;13.70;99.90
55369;DHT22;41247;49.736;8.752;2023-04-10T20:34:49;13.60;99.90
55369;DHT22;41247;49.736;8.752;2023-04-10T20:38:29;13.60;99.90
55369;DHT22;41247;49.736;8.752;2023-04-10T20:42:10;13.60;99.90
55369;DHT22;41247;49.736;8.752;2023-04-10T20:45:51;13.60;99.90
55369;DHT22;41247;49.736;8.752;2023-04-10T20:49:31;13.50;99.90
55369;DHT22;41247;49.736;8.752;2023-04-10T20:53:12;13.50;99.90
55369;DHT22;41247;49.736;8.752;2023-04-10T20:56:52;13.40;99.90
55369;DHT22;41247;49.736;8.752;2023-04-10T21:00:33;13.40;99.90
55369;DHT22;41247;49.736;8.752;2023-04-10T21:04:14;13.40;99.90
55369;DHT22;41247;49.736;8.752;2023-04-10T21:07:54;13.50;99.90
55369;DHT22;41247;49.736;8.752;2023-04-10T21:11:35;13.50;99.90
55369;DHT22;41247;49.736;8.752;2023-04-10T21:15:16;13.50;99.90
55369;DHT22;41247;49.736;8.752;2023-04-10T21:18:56;13.60;99.90
55369;DHT22;41247;49.736;8.752;2023-04-10T21:22:37;13.50;99.90
55369;DHT22;41247;49.736;8.752;2023-04-10T21:26:17;13.50;99.90
55369;DHT22;41247;49.736;8.752;2023-04-10T21:29:58;13.50;99.90
55369;DHT22;41247;49.736;8.752;2023-04-10T21:33:39;13.50;99.90
55369;DHT22;41247;49.736;8.752;2023-04-10T21:37:19;13.50;99.90
55369;DHT22;41247;49.736;8.752;2023-04-10T21:41:00;13.50;99.90
55369;DHT22;41247;49.736;8.752;2023-04-10T21:44:40;13.50;99.90
55369;DHT22;41247;49.736;8.752;2023-04-10T21:48:21;13.50;99.90
55369;DHT22;41247;49.736;8.752;2023-04-10T21:52:02;13.50;99.90
55369;DHT22;41247;49.736;8.752;2023-04-10T21:55:42;13.50;99.90
55369;DHT22;41247;49.736;8.752;2023-04-10T21:59:23;13.50;99.90
55369;DHT22;41247;49.736;8.752;2023-04-10T22:03:04;13.40;99.90
55369;DHT22;41247;49.736;8.752;2023-04-10T22:06:45;13.30;99.90
55369;DHT22;41247;49.736;8.752;2023-04-10T22:10:25;13.40;99.90
55369;DHT22;41247;49.736;8.752;2023-04-10T22:14:06;13.30;99.90
55369;DHT22;41247;49.736;8.752;2023-04-10T22:17:47;13.30;99.90
55369;DHT22;41247;49.736;8.752;2023-04-10T22:21:28;13.30;99.90
55369;DHT22;41247;49.736;8.752;2023-04-10T22:25:08;13.30;99.90
55369;DHT22;41247;49.736;8.752;2023-04-10T22:28:49;13.30;99.90
55369;DHT22;41247;49.736;8.752;2023-04-10T22:32:31;13.30;99.90
55369;DHT22;41247;49.736;8.752;2023-04-10T22:36:12;13.40;99.90
55369;DHT22;41247;49.736;8.752;2023-04-10T22:39:53;13.30;99.90
55369;DHT22;41247;49.736;8.752;2023-04-10T22:43:33;13.30;99.90
55369;DHT22;41247;49.736;8.752;2023-04-10T22:47:14;13.30;99.90
55369;DHT22;41247;49.736;8.752;2023-04-10T22:50:54;13.20;99.90
55369;DHT22;41247;49.736;8.752;2023-04-10T22:54:35;13.20;99.90
55369;DHT22;41247;49.736;8.752;2023-04-10T22:58:16;12.60;99.90
55369;DHT22;41247;49.736;8.752;2023-04-10T23:01:56;12.00;99.90
55369;DHT22;41247;49.736;8.752;2023-04-10T23:05:37;11.60;99.90
55369;DHT22;41247;49.736;8.752;2023-04-10T23:09:17;10.80;99.90
55369;DHT22;41247;49.736;8.752;2023-04-10T23:12:58;10.40;99.90
55369;DHT22;41247;49.736;8.752;2023-04-10T23:16:38;10.10;99.90
55369;DHT22;41247;49.736;8.752;2023-04-10T23:20:19;9.90;99.90
55369;DHT22;41247;49.736;8.752;2023-04-10T23:24:00;9.80;99.90
55369;DHT22;41247;49.736;8.752;2023-04-10T23:27:40;9.70;99.90
55369;DHT22;41247;49.736;8.752;2023-04-10T23:31:21;9.70;99.90
55369;DHT22;41247;49.736;8.752;2023-04-10T23:35:02;9.60;99.90
55369;DHT22;41247;49.736;8.752;2023-04-10T23:38:42;9.60;99.90
55369;DHT22;41247;49.736;8.752;2023-04-10T23:42:23;9.60;99.90